createdAt,value
2022-10-29T00:00:46.036Z,82.073975
2022-10-29T00:01:54.749Z,82.006836
2022-10-29T00:03:03.559Z,82.312012
2022-10-29T00:04:13.060Z,83.123779
2022-10-29T00:05:21.745Z,84.344482
2022-10-29T00:06:31.416Z,85.394287
2022-10-29T00:07:40.081Z,85.192871
2022-10-29T00:08:48.774Z,85.498047
2022-10-29T00:09:58.464Z,86.047363
2022-10-29T00:11:07.148Z,86.346436
2022-10-29T00:12:15.805Z,86.553955
2022-10-29T00:13:25.498Z,87.060547
2022-10-29T00:14:34.240Z,87.261963
2022-10-29T00:15:43.934Z,87.70752
2022-10-29T00:16:52.636Z,87.811279
2022-10-29T00:18:02.307Z,88.116455
2022-10-29T00:19:11.000Z,88.317871
2022-10-29T00:20:20.637Z,88.317871
2022-10-29T00:21:30.318Z,88.519287
2022-10-29T00:22:39.015Z,88.928223
2022-10-29T00:23:46.698Z,88.928223
2022-10-29T00:24:56.415Z,89.129639
2022-10-29T00:26:06.105Z,88.360596
2022-10-29T00:27:15.893Z,88.665771
2022-10-29T00:28:25.608Z,89.373779
2022-10-29T00:29:35.307Z,89.172363
2022-10-29T00:30:44.976Z,89.373779
2022-10-29T00:31:53.718Z,89.581299
2022-10-29T00:36:50.288Z,89.373779
2022-10-29T00:38:00.996Z,89.172363
2022-10-29T00:39:09.679Z,88.256836
2022-10-29T00:40:19.380Z,88.763428
2022-10-29T00:41:28.027Z,89.172363
2022-10-29T00:42:37.752Z,88.867188
2022-10-29T00:43:45.398Z,88.15918
2022-10-29T00:44:54.093Z,87.95166
2022-10-29T00:46:02.776Z,87.95166
2022-10-29T00:47:11.532Z,88.256836
2022-10-29T00:48:20.265Z,88.458252
2022-10-29T00:49:28.078Z,88.360596
2022-10-29T00:50:36.807Z,88.665771
2022-10-29T00:51:44.464Z,89.068604
2022-10-29T00:52:54.176Z,89.72168
2022-10-29T00:54:04.223Z,89.61792
2022-10-29T00:55:12.974Z,89.111328
2022-10-29T00:56:20.680Z,89.215088
2022-10-29T00:57:29.366Z,89.825439
2022-10-29T00:58:39.113Z,89.764404
2022-10-29T00:59:47.042Z,89.764404
2022-10-29T01:00:56.802Z,89.96582
2022-10-29T01:02:04.678Z,89.868164
2022-10-29T01:03:13.404Z,90.17334
2022-10-29T01:04:22.978Z,90.270996
2022-10-29T01:05:30.732Z,90.374756
2022-10-29T01:06:40.423Z,90.478516
2022-10-29T01:07:48.218Z,90.52124
2022-10-29T01:08:56.954Z,90.722656
2022-10-29T01:10:06.645Z,90.826416
2022-10-29T01:11:15.356Z,90.826416
2022-10-29T01:12:23.023Z,91.229248
2022-10-29T01:13:32.719Z,90.924072
2022-10-29T01:14:42.414Z,91.027832
2022-10-29T01:15:50.120Z,91.333008
2022-10-29T01:16:58.830Z,91.271973
2022-10-29T01:18:08.531Z,91.271973
2022-10-29T01:19:19.333Z,91.271973
2022-10-29T01:20:27.994Z,91.174316
2022-10-29T01:21:36.745Z,91.070557
2022-10-29T01:22:44.599Z,91.375732
2022-10-29T01:23:54.268Z,91.418457
2022-10-29T01:25:01.953Z,91.723633
2022-10-29T01:26:11.615Z,91.827393
2022-10-29T01:27:20.394Z,91.827393
2022-10-29T01:28:27.209Z,92.132568
2022-10-29T01:29:36.955Z,92.376709
2022-10-29T01:30:46.644Z,92.681885
2022-10-29T01:31:55.319Z,92.785645
2022-10-29T01:33:04.002Z,92.987061
2022-10-29T01:34:11.774Z,92.889404
2022-10-29T01:35:20.427Z,93.09082
2022-10-29T01:36:30.124Z,93.292236
2022-10-29T01:37:39.835Z,93.19458
2022-10-29T01:38:48.509Z,93.701172
2022-10-29T01:39:56.235Z,93.804932
2022-10-29T01:41:05.983Z,93.847656
2022-10-29T01:42:15.652Z,94.256592
2022-10-29T01:43:25.371Z,94.354248
2022-10-29T01:44:32.052Z,94.866943
2022-10-29T01:45:41.248Z,94.763184
2022-10-29T01:46:50.216Z,94.970703
2022-10-29T01:47:59.220Z,94.970703
2022-10-29T01:49:06.740Z,95.275879
2022-10-29T01:50:14.456Z,95.275879
2022-10-29T01:51:23.264Z,95.275879
2022-10-29T01:52:31.996Z,95.373535
2022-10-29T01:53:41.728Z,95.373535
2022-10-29T01:54:51.493Z,95.373535
2022-10-29T01:55:58.236Z,95.275879
2022-10-29T01:57:08.076Z,95.373535
2022-10-29T01:59:34.920Z,95.422363
2022-10-29T02:00:34.150Z,95.52002
2022-10-29T02:01:42.819Z,95.52002
2022-10-29T02:02:51.532Z,95.727539
2022-10-29T02:04:00.221Z,95.825195
2022-10-29T02:05:09.041Z,95.928955
2022-10-29T02:06:17.712Z,95.825195
2022-10-29T02:07:27.408Z,95.928955
2022-10-29T02:08:37.188Z,95.928955
2022-10-29T02:09:44.913Z,96.032715
2022-10-29T02:10:53.622Z,96.032715
2022-10-29T02:12:03.321Z,96.032715
2022-10-29T02:13:11.107Z,96.032715
2022-10-29T02:14:20.780Z,96.032715
2022-10-29T02:15:28.484Z,95.928955
2022-10-29T02:16:37.243Z,95.928955
2022-10-29T02:17:46.976Z,96.032715
2022-10-29T02:18:55.675Z,96.032715
2022-10-29T02:20:05.423Z,96.136475
2022-10-29T02:21:12.121Z,96.136475
2022-10-29T02:22:20.867Z,96.075439
2022-10-29T02:23:28.612Z,96.032715
2022-10-29T02:24:36.307Z,96.075439
2022-10-29T02:25:45.134Z,95.874023
2022-10-29T02:26:52.756Z,96.179199
2022-10-29T02:28:00.463Z,96.179199
2022-10-29T02:29:10.258Z,96.484375
2022-10-29T02:30:19.993Z,96.588135
2022-10-29T02:31:28.733Z,96.380615
2022-10-29T02:32:37.480Z,96.380615
2022-10-29T02:33:45.265Z,96.380615
2022-10-29T02:34:53.885Z,96.282959
2022-10-29T02:36:01.566Z,96.380615
2022-10-29T02:37:10.376Z,96.380615
2022-10-29T02:38:20.085Z,96.484375
2022-10-29T02:39:28.757Z,96.588135
2022-10-29T02:40:38.452Z,96.685791
2022-10-29T02:41:48.195Z,96.685791
2022-10-29T02:42:57.245Z,96.588135
2022-10-29T02:44:06.640Z,96.588135
2022-10-29T02:45:14.445Z,96.588135
2022-10-29T02:46:24.450Z,96.484375
2022-10-29T02:47:34.153Z,96.075439
2022-10-29T02:48:41.862Z,96.075439
2022-10-29T02:49:49.527Z,95.568848
2022-10-29T02:50:58.343Z,95.013428
2022-10-29T02:52:07.070Z,94.708252
2022-10-29T02:53:15.777Z,94.500732
2022-10-29T02:54:22.520Z,94.403076
2022-10-29T02:55:32.253Z,94.195557
2022-10-29T02:56:40.940Z,94.091797
2022-10-29T02:57:50.610Z,93.743896
2022-10-29T02:58:58.291Z,93.640137
2022-10-29T03:00:06.998Z,93.640137
2022-10-29T03:01:15.891Z,93.786621
2022-10-29T03:02:25.677Z,93.688965
2022-10-29T03:03:34.248Z,93.786621
2022-10-29T03:04:42.989Z,93.890381
2022-10-29T03:05:51.716Z,93.994141
2022-10-29T03:07:01.482Z,93.994141
2022-10-29T03:08:10.153Z,94.091797
2022-10-29T03:09:19.832Z,94.195557
2022-10-29T03:10:28.502Z,94.403076
2022-10-29T03:11:38.226Z,94.403076
2022-10-29T03:12:46.900Z,94.403076
2022-10-29T03:13:55.710Z,94.299316
2022-10-29T03:15:04.465Z,94.299316
2022-10-29T03:16:13.158Z,94.445801
2022-10-29T03:17:20.921Z,94.445801
2022-10-29T03:18:30.649Z,94.342041
2022-10-29T03:19:39.357Z,94.549561
2022-10-29T03:20:49.029Z,94.647217
2022-10-29T03:21:57.736Z,94.750977
2022-10-29T03:23:07.498Z,94.854736
2022-10-29T03:24:17.159Z,95.263672
2022-10-29T03:25:24.862Z,95.465088
2022-10-29T03:26:34.584Z,95.666504
2022-10-29T03:27:43.360Z,95.568848
2022-10-29T03:28:51.103Z,95.465088
2022-10-29T03:29:59.821Z,95.263672
2022-10-29T03:31:08.533Z,95.263672
2022-10-29T03:32:17.229Z,95.056152
2022-10-29T03:33:27.025Z,94.952393
2022-10-29T03:34:36.852Z,94.750977
2022-10-29T03:35:45.761Z,94.750977
2022-10-29T03:36:53.474Z,94.445801
2022-10-29T03:38:01.197Z,94.549561
2022-10-29T03:39:09.902Z,94.342041
2022-10-29T03:40:18.914Z,94.445801
2022-10-29T03:41:26.628Z,94.342041
2022-10-29T03:42:35.353Z,94.445801
2022-10-29T03:43:45.229Z,94.549561
2022-10-29T03:44:53.814Z,94.238281
2022-10-29T03:46:01.526Z,94.238281
2022-10-29T03:47:10.242Z,94.238281
2022-10-29T03:48:18.919Z,94.140625
2022-10-29T03:49:25.705Z,93.62793
2022-10-29T03:50:35.434Z,93.383789
2022-10-29T03:51:43.221Z,92.974854
2022-10-29T03:52:50.901Z,92.767334
2022-10-29T03:53:59.670Z,92.364502
2022-10-29T03:55:07.357Z,91.851807
2022-10-29T03:56:17.029Z,91.400146
2022-10-29T03:57:26.833Z,90.991211
2022-10-29T03:58:34.521Z,90.338135
2022-10-29T03:59:42.245Z,89.935303
2022-10-29T04:00:51.964Z,89.727783
2022-10-29T04:02:01.766Z,89.422607
2022-10-29T04:03:08.450Z,89.221191
2022-10-29T04:04:17.132Z,88.916016
2022-10-29T04:05:24.906Z,88.769531
2022-10-29T04:06:34.636Z,88.568115
2022-10-29T04:07:42.352Z,88.464355
2022-10-29T04:08:51.120Z,88.15918
2022-10-29T04:09:59.808Z,88.05542
2022-10-29T04:11:09.472Z,87.750244
2022-10-29T04:12:15.253Z,87.652588
2022-10-29T04:13:24.952Z,87.652588
2022-10-29T04:14:33.766Z,87.652588
2022-10-29T04:15:42.526Z,87.750244
2022-10-29T04:16:51.133Z,87.445068
2022-10-29T04:18:00.853Z,87.347412
2022-10-29T04:19:08.498Z,87.347412
2022-10-29T04:20:27.287Z,87.347412
2022-10-29T04:23:08.277Z,87.243652
2022-10-29T04:28:47.627Z,86.694336
2022-10-29T04:29:42.870Z,86.590576
2022-10-29T04:30:51.511Z,86.49292
2022-10-29T04:32:00.240Z,86.49292
2022-10-29T04:33:10.089Z,86.38916
2022-10-29T04:34:19.786Z,86.2854
2022-10-29T04:35:29.498Z,86.38916
2022-10-29T04:36:37.220Z,86.49292
2022-10-29T04:37:46.926Z,86.49292
2022-10-29T04:38:55.650Z,86.895752
2022-10-29T04:40:05.330Z,86.798096
2022-10-29T04:41:15.039Z,86.895752
2022-10-29T04:42:23.713Z,87.103271
2022-10-29T04:43:31.464Z,87.506104
2022-10-29T04:44:40.200Z,87.200928
2022-10-29T04:45:49.917Z,87.103271
2022-10-29T04:46:59.641Z,87.200928
2022-10-29T04:48:09.388Z,87.506104
2022-10-29T04:49:17.171Z,87.408447
2022-10-29T04:50:24.884Z,86.999512
2022-10-29T04:51:33.614Z,86.694336
2022-10-29T04:52:42.468Z,86.895752
2022-10-29T04:53:52.216Z,86.590576
2022-10-29T04:55:01.993Z,86.895752
2022-10-29T04:56:08.712Z,85.882568
2022-10-29T04:57:19.414Z,85.430908
2022-10-29T04:58:27.074Z,85.125732
2022-10-29T04:59:34.761Z,85.028076
2022-10-29T05:00:43.509Z,84.924316
2022-10-29T05:01:53.115Z,84.820557
2022-10-29T05:03:00.202Z,84.375
2022-10-29T05:04:08.507Z,84.277344
2022-10-29T05:05:16.192Z,83.666992
2022-10-29T05:06:24.917Z,83.764648
2022-10-29T05:07:33.693Z,83.563232
2022-10-29T05:08:41.411Z,83.563232
2022-10-29T05:09:51.049Z,83.258057
2022-10-29T05:10:59.729Z,83.154297
2022-10-29T05:12:09.442Z,82.8125
2022-10-29T05:13:17.150Z,82.611084
2022-10-29T05:14:26.882Z,82.305908
2022-10-29T05:15:33.651Z,82.403564
2022-10-29T05:16:43.370Z,82.305908
2022-10-29T05:17:51.143Z,82.202148
2022-10-29T05:18:58.879Z,82.202148
2022-10-29T05:20:08.649Z,82.305908
2022-10-29T05:21:16.362Z,82.202148
2022-10-29T05:22:26.103Z,82.000732
2022-10-29T05:23:33.813Z,82.000732
2022-10-29T05:24:42.581Z,81.896973
2022-10-29T05:25:52.474Z,81.695557
2022-10-29T05:27:00.985Z,81.658936
2022-10-29T05:28:08.657Z,81.555176
2022-10-29T05:29:16.411Z,81.35376
2022-10-29T05:30:23.104Z,81.14624
2022-10-29T05:31:31.806Z,81.35376
2022-10-29T05:32:40.506Z,80.841064
2022-10-29T05:33:51.255Z,80.841064
2022-10-29T05:35:00.906Z,80.944824
2022-10-29T05:36:10.592Z,81.25
2022-10-29T05:37:18.241Z,81.451416
2022-10-29T05:38:24.907Z,81.555176
2022-10-29T05:39:33.625Z,81.695557
2022-10-29T05:40:42.712Z,81.695557
2022-10-29T05:41:52.197Z,81.591797
2022-10-29T05:43:00.134Z,81.695557
2022-10-29T05:44:08.555Z,81.695557
2022-10-29T05:45:17.243Z,81.896973
2022-10-29T05:46:24.982Z,81.793213
2022-10-29T05:47:33.651Z,81.695557
2022-10-29T05:48:43.328Z,81.286621
2022-10-29T05:49:51.038Z,81.451416
2022-10-29T05:51:00.739Z,81.14624
2022-10-29T05:52:17.510Z,81.35376
2022-10-29T05:53:27.177Z,81.451416
2022-10-29T05:54:36.875Z,81.35376
2022-10-29T05:55:45.673Z,81.25
2022-10-29T05:56:55.337Z,81.048584
2022-10-29T05:58:05.036Z,81.14624
2022-10-29T05:59:14.701Z,80.743408
2022-10-29T06:00:23.399Z,80.944824
2022-10-29T06:01:33.231Z,80.841064
2022-10-29T06:02:41.899Z,80.841064
2022-10-29T06:05:00.216Z,80.944824
2022-10-29T06:06:08.999Z,80.944824
2022-10-29T06:07:18.553Z,80.944824
2022-10-29T06:08:26.241Z,81.048584
2022-10-29T06:09:33.942Z,80.639648
2022-10-29T06:10:42.650Z,80.639648
2022-10-29T06:11:51.347Z,80.743408
2022-10-29T06:13:01.000Z,80.499268
2022-10-29T06:14:10.677Z,80.603027
2022-10-29T06:15:19.406Z,80.401611
2022-10-29T06:16:29.087Z,80.297852
2022-10-29T06:17:37.777Z,80.706787
2022-10-29T06:18:47.489Z,80.706787
2022-10-29T06:19:56.171Z,80.804443
2022-10-29T06:21:09.684Z,80.908203
2022-10-29T06:22:19.363Z,80.944824
2022-10-29T06:23:29.044Z,81.048584
2022-10-29T06:24:37.724Z,80.841064
2022-10-29T06:25:46.394Z,81.860352
2022-10-29T06:26:55.094Z,80.603027
2022-10-29T06:28:04.799Z,80.499268
2022-10-29T06:29:13.443Z,80.603027
2022-10-29T06:30:21.224Z,80.297852
2022-10-29T06:31:31.061Z,80.194092
2022-10-29T06:32:40.800Z,79.89502
2022-10-29T06:33:49.551Z,79.89502
2022-10-29T06:34:58.255Z,79.6875
2022-10-29T06:36:08.138Z,79.248047
2022-10-29T06:37:17.855Z,79.345703
2022-10-29T06:38:25.671Z,78.942871
2022-10-29T06:39:34.379Z,79.144287
2022-10-29T06:40:44.105Z,79.449463
2022-10-29T06:41:52.802Z,79.345703
2022-10-29T06:43:02.529Z,79.144287
2022-10-29T06:44:12.225Z,79.449463
2022-10-29T06:45:21.975Z,79.754639
2022-10-29T06:46:31.657Z,79.852295
2022-10-29T06:47:40.361Z,79.852295
2022-10-29T06:48:48.061Z,80.36499
2022-10-29T06:49:57.887Z,80.462646
2022-10-29T06:51:07.561Z,80.36499
2022-10-29T06:52:17.307Z,80.36499
2022-10-29T06:53:25.984Z,81.176758
2022-10-29T06:54:34.668Z,81.68335
2022-10-29T06:55:44.403Z,80.603027
2022-10-29T06:56:54.091Z,79.956055
2022-10-29T06:58:02.811Z,80.26123
2022-10-29T06:59:12.515Z,80.36499
2022-10-29T07:00:22.205Z,80.36499
2022-10-29T07:01:31.946Z,80.157471
2022-10-29T07:02:40.682Z,80.059814
2022-10-29T07:03:50.384Z,80.36499
2022-10-29T07:04:59.036Z,80.26123
2022-10-29T07:06:07.735Z,80.462646
2022-10-29T07:07:16.480Z,80.26123
2022-10-29T07:08:26.114Z,80.462646
2022-10-29T07:09:35.803Z,80.767822
2022-10-29T07:10:44.463Z,80.426025
2022-10-29T07:11:53.147Z,80.322266
2022-10-29T07:13:02.819Z,80.224609
2022-10-29T07:14:12.505Z,79.675293
2022-10-29T07:15:22.051Z,79.168701
2022-10-29T07:16:30.884Z,78.326416
2022-10-29T07:17:40.577Z,78.02124
2022-10-29T07:18:49.247Z,77.575684
2022-10-29T07:19:58.965Z,77.478027
2022-10-29T07:21:07.647Z,77.172852
2022-10-29T07:22:17.367Z,76.831055
2022-10-29T07:23:27.249Z,76.525879
2022-10-29T07:24:35.843Z,76.123047
2022-10-29T07:25:44.550Z,75.378418
2022-10-29T07:26:54.308Z,75.244141
2022-10-29T07:28:03.037Z,74.804688
2022-10-29T07:29:12.648Z,74.261475
2022-10-29T07:30:21.358Z,73.657227
2022-10-29T07:31:30.043Z,73.016357
2022-10-29T07:32:39.692Z,72.88208
2022-10-29T07:33:48.374Z,72.039795
2022-10-29T07:34:57.094Z,70.794678
2022-10-29T07:36:06.926Z,70.056152
2022-10-29T07:37:16.635Z,70.153809
2022-10-29T07:38:25.421Z,69.213867
2022-10-29T07:39:34.269Z,68.884277
2022-10-29T07:40:43.043Z,68.377686
2022-10-29T07:41:54.060Z,68.145752
2022-10-29T07:43:03.734Z,67.407227
2022-10-29T07:44:12.487Z,66.473389
2022-10-29T07:45:22.184Z,66.540527
2022-10-29T07:46:30.915Z,66.033936
2022-10-29T07:47:38.626Z,65.203857
2022-10-29T07:48:48.338Z,65.002441
2022-10-29T07:49:57.004Z,64.801025
2022-10-29T07:51:05.704Z,64.367676
2022-10-29T07:52:14.371Z,64.135742
2022-10-29T07:53:22.170Z,64.135742
2022-10-29T07:54:31.841Z,63.635254
2022-10-29T07:55:41.515Z,63.232422
2022-10-29T07:56:51.249Z,64.038086
2022-10-29T07:57:59.991Z,63.433838
2022-10-29T07:59:08.706Z,63.531494
2022-10-29T08:00:19.388Z,63.232422
2022-10-29T08:01:28.170Z,63.763428
2022-10-29T08:02:35.728Z,63.763428
2022-10-29T08:03:45.438Z,64.196777
2022-10-29T08:04:55.105Z,64.398193
2022-10-29T08:06:03.857Z,64.099121
2022-10-29T08:07:13.551Z,65.130615
2022-10-29T08:08:22.248Z,64.929199
2022-10-29T08:09:31.943Z,64.727783
2022-10-29T08:10:40.670Z,65.130615
2022-10-29T08:11:50.395Z,65.332031
2022-10-29T08:12:59.563Z,65.734863
2022-10-29T08:14:06.779Z,65.667725
2022-10-29T08:15:16.466Z,66.473389
2022-10-29T08:16:25.175Z,65.667725
2022-10-29T08:17:34.882Z,65.966797
2022-10-29T08:18:44.577Z,67.175293
2022-10-29T08:19:53.306Z,66.271973
2022-10-29T08:21:02.996Z,65.869141
2022-10-29T08:22:10.700Z,66.271973
2022-10-29T08:23:20.427Z,66.070557
2022-10-29T08:24:30.097Z,66.772461
2022-10-29T08:25:38.764Z,66.571045
2022-10-29T08:26:47.442Z,66.473389
2022-10-29T08:27:56.143Z,66.168213
2022-10-29T08:29:04.822Z,66.339111
2022-10-29T08:30:14.502Z,66.137695
2022-10-29T08:31:22.198Z,66.033936
2022-10-29T08:32:30.882Z,66.8396
2022-10-29T08:33:40.564Z,67.041016
2022-10-29T08:34:50.327Z,66.741943
2022-10-29T08:35:59.147Z,66.943359
2022-10-29T08:37:08.939Z,67.041016
2022-10-29T08:38:17.632Z,66.943359
2022-10-29T08:39:26.522Z,67.144775
2022-10-29T08:40:35.373Z,67.346191
2022-10-29T08:41:43.132Z,67.443848
2022-10-29T08:42:52.895Z,67.144775
2022-10-29T08:45:10.297Z,67.74292
2022-10-29T08:46:19.982Z,67.144775
2022-10-29T08:47:28.700Z,67.645264
2022-10-29T08:48:38.400Z,67.74292
2022-10-29T08:49:46.104Z,67.645264
2022-10-29T08:50:54.791Z,68.048096
2022-10-29T08:52:04.516Z,67.944336
2022-10-29T08:53:22.664Z,68.048096
2022-10-29T08:54:30.856Z,68.145752
2022-10-29T08:55:35.544Z,67.645264
2022-10-29T08:56:43.299Z,67.712402
2022-10-29T08:57:53.275Z,68.31665
2022-10-29T08:59:00.701Z,67.816162
2022-10-29T09:00:10.379Z,68.115234
2022-10-29T09:01:20.223Z,67.816162
2022-10-29T09:02:28.811Z,67.614746
2022-10-29T09:03:38.490Z,67.480469
2022-10-29T09:04:48.178Z,67.279053
2022-10-29T09:05:56.866Z,67.181396
2022-10-29T09:07:06.587Z,67.480469
2022-10-29T09:08:16.249Z,67.779541
2022-10-29T09:09:25.965Z,67.480469
2022-10-29T09:10:35.665Z,67.681885
2022-10-29T09:11:44.341Z,67.980957
2022-10-29T09:12:54.376Z,68.084717
2022-10-29T09:14:02.767Z,67.980957
2022-10-29T09:15:11.434Z,67.480469
2022-10-29T09:16:21.111Z,67.578125
2022-10-29T09:17:30.825Z,68.286133
2022-10-29T09:18:39.514Z,68.084717
2022-10-29T09:19:49.222Z,68.084717
2022-10-29T09:20:57.908Z,68.682861
2022-10-29T09:22:06.616Z,68.151855
2022-10-29T09:23:15.396Z,68.048096
2022-10-29T09:24:25.050Z,67.950439
2022-10-29T09:25:34.815Z,68.823242
2022-10-29T09:26:42.506Z,67.816162
2022-10-29T09:27:50.205Z,67.816162
2022-10-29T09:28:59.922Z,66.986084
2022-10-29T09:30:08.625Z,67.285156
2022-10-29T09:31:18.354Z,66.949463
2022-10-29T09:32:27.071Z,66.217041
2022-10-29T09:33:36.771Z,66.119385
2022-10-29T09:34:46.455Z,66.088867
2022-10-29T09:35:54.204Z,65.856934
2022-10-29T09:37:03.057Z,64.39209
2022-10-29T09:38:12.751Z,64.190674
2022-10-29T09:39:24.375Z,63.433838
2022-10-29T09:40:32.161Z,63.000488
2022-10-29T09:41:41.877Z,62.145996
2022-10-29T09:42:51.681Z,61.218262
2022-10-29T09:44:01.431Z,61.2854
2022-10-29T09:45:10.098Z,60.858154
2022-10-29T09:46:17.761Z,59.906006
2022-10-29T09:47:27.581Z,58.581543
2022-10-29T09:48:36.352Z,56.768799
2022-10-29T09:49:46.112Z,56.439209
2022-10-29T09:50:55.845Z,55.718994
2022-10-29T09:52:05.590Z,55.81665
2022-10-29T09:53:15.282Z,55.291748
2022-10-29T09:54:23.984Z,55.566406
2022-10-29T09:55:31.675Z,56.158447
2022-10-29T09:56:41.352Z,55.938721
2022-10-29T09:57:51.023Z,55.072021
2022-10-29T09:58:59.691Z,54.077148
2022-10-29T10:00:07.382Z,54.772949
2022-10-29T10:01:17.153Z,54.748535
2022-10-29T10:02:26.807Z,54.418945
2022-10-29T10:03:34.434Z,54.595947
2022-10-29T10:04:42.216Z,53.997803
2022-10-29T10:05:51.924Z,52.612305
2022-10-29T10:06:59.633Z,52.636719
2022-10-29T10:08:09.315Z,53.33252
2022-10-29T10:09:18.974Z,52.807617
2022-10-29T10:10:27.655Z,52.020264
2022-10-29T10:11:36.369Z,52.215576
2022-10-29T10:12:45.010Z,51.89209
2022-10-29T10:13:54.693Z,51.794434
2022-10-29T10:15:01.390Z,51.300049
2022-10-29T10:16:10.179Z,51.794434
2022-10-29T10:17:19.897Z,51.300049
2022-10-29T10:18:28.674Z,51.373291
2022-10-29T10:19:37.413Z,51.397705
2022-10-29T10:20:46.086Z,51.794434
2022-10-29T10:21:55.762Z,52.191162
2022-10-29T10:23:04.505Z,52.661133
2022-10-29T10:24:12.193Z,50.878906
2022-10-29T10:25:20.889Z,50.854492
2022-10-29T10:26:30.541Z,49.468994
2022-10-29T10:27:40.255Z,49.865723
2022-10-29T10:28:48.967Z,51.074219
2022-10-29T10:29:58.642Z,50.061035
2022-10-29T10:31:07.392Z,50.061035
2022-10-29T10:32:17.192Z,50.65918
2022-10-29T10:33:24.895Z,49.639893
2022-10-29T10:34:33.623Z,49.047852
2022-10-29T10:35:44.283Z,49.743652
2022-10-29T10:36:52.997Z,50.158691
2022-10-29T10:38:01.681Z,49.841309
2022-10-29T10:39:12.398Z,49.963379
2022-10-29T10:40:29.821Z,50.036621
2022-10-29T10:41:38.486Z,49.047852
2022-10-29T10:42:48.194Z,49.79248
2022-10-29T10:43:57.816Z,49.914551
2022-10-29T10:45:07.512Z,50.134277
2022-10-29T10:46:17.346Z,51.123047
2022-10-29T10:47:26.103Z,51.422119
2022-10-29T10:49:44.453Z,50.952148
2022-10-29T10:50:53.142Z,50.732422
2022-10-29T10:52:02.960Z,49.816895
2022-10-29T10:53:12.624Z,48.455811
2022-10-29T10:54:22.230Z,48.577881
2022-10-29T10:55:30.818Z,49.194336
2022-10-29T10:56:39.479Z,48.724365
2022-10-29T10:57:49.175Z,49.615479
2022-10-29T10:58:57.882Z,50.20752
2022-10-29T11:00:05.515Z,49.468994
2022-10-29T11:01:15.381Z,48.974609
2022-10-29T11:02:24.002Z,50.158691
2022-10-29T11:03:32.630Z,49.468994
2022-10-29T11:04:41.315Z,49.56665
2022-10-29T11:05:49.986Z,48.852539
2022-10-29T11:06:59.664Z,49.346924
2022-10-29T11:08:09.361Z,48.236084
2022-10-29T11:09:18.097Z,48.33374
2022-10-29T11:10:28.000Z,48.034668
2022-10-29T11:11:37.609Z,48.406982
2022-10-29T11:12:46.357Z,47.027588
2022-10-29T11:13:56.022Z,48.034668
2022-10-29T11:15:05.782Z,48.114014
2022-10-29T11:16:15.453Z,48.034668
2022-10-29T11:17:23.151Z,48.016357
2022-10-29T11:18:31.803Z,48.016357
2022-10-29T11:19:41.498Z,47.894287
2022-10-29T11:20:51.231Z,47.570801
2022-10-29T11:21:59.922Z,47.44873
2022-10-29T11:23:08.596Z,46.466064
2022-10-29T11:24:17.386Z,46.97876
2022-10-29T11:25:27.143Z,47.375488
2022-10-29T11:26:35.852Z,47.570801
2022-10-29T11:27:44.649Z,47.375488
2022-10-29T11:28:54.309Z,47.44873
2022-10-29T11:30:03.035Z,47.229004
2022-10-29T11:31:11.840Z,46.417236
2022-10-29T11:32:21.616Z,46.520996
2022-10-29T11:33:31.296Z,46.398926
2022-10-29T11:34:41.016Z,45.904541
2022-10-29T11:35:49.745Z,45.507812
2022-10-29T11:36:59.396Z,45.19043
2022-10-29T11:38:09.125Z,45.684814
2022-10-29T11:39:17.840Z,44.799805
2022-10-29T11:40:27.543Z,44.775391
2022-10-29T11:41:36.356Z,45.391846
2022-10-29T11:42:45.037Z,45.391846
2022-10-29T11:43:54.837Z,45.294189
2022-10-29T11:45:02.531Z,46.77124
2022-10-29T11:46:11.279Z,46.179199
2022-10-29T11:47:20.980Z,46.154785
2022-10-29T11:48:30.684Z,47.064209
2022-10-29T11:49:40.537Z,47.460938
2022-10-29T11:50:50.209Z,47.064209
2022-10-29T11:51:58.889Z,47.241211
2022-10-29T11:53:08.661Z,47.241211
2022-10-29T11:54:16.345Z,48.101807
2022-10-29T11:55:27.053Z,47.827148
2022-10-29T11:56:36.793Z,47.698975
2022-10-29T11:57:46.509Z,48.291016
2022-10-29T11:58:55.181Z,48.565674
2022-10-29T12:00:04.924Z,48.126221
2022-10-29T12:01:13.670Z,47.436523
2022-10-29T12:02:22.303Z,47.729492
2022-10-29T12:03:30.060Z,48.223877
2022-10-29T12:04:39.692Z,47.802734
2022-10-29T12:05:47.379Z,47.76001
2022-10-29T12:06:57.098Z,46.435547
2022-10-29T12:08:06.800Z,45.648193
2022-10-29T12:09:15.464Z,45.239258
2022-10-29T12:10:23.187Z,44.824219
2022-10-29T12:11:32.891Z,44.470215
2022-10-29T12:12:42.605Z,45.281982
2022-10-29T12:13:51.306Z,46.380615
2022-10-29T12:15:00.006Z,46.087646
2022-10-29T12:16:09.688Z,46.380615
2022-10-29T12:17:20.422Z,46.679688
2022-10-29T12:18:29.078Z,46.185303
2022-10-29T12:19:37.768Z,45.245361
2022-10-29T12:20:46.430Z,45.983887
2022-10-29T12:21:56.166Z,46.966553
2022-10-29T12:23:08.046Z,46.276855
2022-10-29T12:24:16.475Z,45.739746
2022-10-29T12:25:24.231Z,45.129395
2022-10-29T12:26:33.883Z,45.697021
2022-10-29T12:27:43.561Z,45.697021
2022-10-29T12:28:53.224Z,45.617676
2022-10-29T12:30:02.100Z,45.544434
2022-10-29T12:31:10.796Z,45.715332
2022-10-29T12:32:20.476Z,46.014404
2022-10-29T12:33:28.132Z,46.697998
2022-10-29T12:34:36.808Z,46.282959
2022-10-29T12:35:46.561Z,45.477295
2022-10-29T12:36:57.442Z,45.532227
2022-10-29T12:38:05.891Z,45.117188
2022-10-29T12:39:15.781Z,44.744873
2022-10-29T12:40:25.499Z,44.647217
2022-10-29T12:41:35.218Z,45.037842
2022-10-29T12:42:43.887Z,45.410156
2022-10-29T12:43:52.568Z,44.824219
2022-10-29T12:45:02.283Z,44.232178
2022-10-29T12:46:19.824Z,44.40918
2022-10-29T12:47:22.646Z,44.134521
2022-10-29T12:48:39.425Z,44.9646
2022-10-29T12:49:48.113Z,45.697021
2022-10-29T12:50:55.806Z,45.202637
2022-10-29T12:52:05.474Z,45.007324
2022-10-29T12:53:14.200Z,45.227051
2022-10-29T12:54:22.905Z,45.599365
2022-10-29T12:55:31.644Z,45.672607
2022-10-29T12:56:42.968Z,45.257568
2022-10-29T12:57:51.986Z,44.494629
2022-10-29T12:59:00.662Z,45.202637
2022-10-29T13:00:08.328Z,45.281982
2022-10-29T13:01:18.100Z,44.671631
2022-10-29T13:02:27.021Z,44.274902
2022-10-29T13:03:39.952Z,43.981934
2022-10-29T13:04:47.166Z,44.274902
2022-10-29T13:05:55.871Z,44.647217
2022-10-29T13:07:05.626Z,44.769287
2022-10-29T13:08:15.310Z,46.264648
2022-10-29T13:09:24.999Z,47.442627
2022-10-29T13:10:34.734Z,47.711182
2022-10-29T13:11:44.509Z,48.10791
2022-10-29T13:12:54.189Z,48.498535
2022-10-29T13:14:02.940Z,49.084473
2022-10-29T13:15:11.647Z,49.456787
2022-10-29T13:16:21.448Z,49.261475
2022-10-29T13:17:29.168Z,49.066162
2022-10-29T13:18:41.425Z,46.044922
2022-10-29T13:19:48.608Z,46.582031
2022-10-29T13:20:57.279Z,48.76709
2022-10-29T13:22:06.028Z,49.554443
2022-10-29T13:23:14.728Z,50.140381
2022-10-29T13:24:23.461Z,50.140381